Time;durP1;ratioP1;P1;durP2;ratioP2;P2;SDS_P1;SDS_P2;PMS_P1;PMS_P2;Temp;Humidity;BMP_temperature;BMP_pressure;BME280_temperature;BME280_humidity;BME280_pressure;Samples;Min_cycle;Max_cycle;Signal;HPM_P1;HPM_P2
2021/10/18 00:01:56;;;;;;;16.40;10.77;;;;;;;;;;4432423;32;20323;-55
2021/10/18 00:04:22;;;;;;;16.90;11.07;;;;;;;;;;4433612;32;20314;-55
2021/10/18 00:06:47;;;;;;;16.10;10.03;;;;;;;;;;4433469;32;20306;-54
2021/10/18 00:09:13;;;;;;;20.97;12.63;;;;;;;;;;4432526;32;20291;-55
2021/10/18 00:11:38;;;;;;;18.27;12.10;;;;;;;;;;4432893;32;20232;-55
2021/10/18 00:14:05;;;;;;;18.63;11.37;;;;;;;;;;4433216;32;20399;-55
2021/10/18 00:16:30;;;;;;;20.43;11.17;;;;;;;;;;4431629;32;20236;-55
2021/10/18 00:18:56;;;;;;;20.60;12.40;;;;;;;;;;4433661;32;20309;-56
2021/10/18 00:21:21;;;;;;;17.77;12.30;;;;;;;;;;4432920;32;20585;-55
2021/10/18 00:23:47;;;;;;;17.10;11.40;;;;;;;;;;4433312;32;20299;-55
2021/10/18 00:26:12;;;;;;;16.80;11.00;;;;;;;;;;4432967;32;20244;-55
2021/10/18 00:28:38;;;;;;;18.87;11.07;;;;;;;;;;4433149;32;20372;-55
2021/10/18 00:31:03;;;;;;;13.67;10.03;;;;;;;;;;4431183;32;20359;-55
2021/10/18 00:33:29;;;;;;;15.87;10.20;;;;;;;;;;4433508;32;20366;-55
2021/10/18 00:35:54;;;;;;;18.23;12.13;;;;;;;;;;4432635;32;20303;-55
2021/10/18 00:38:20;;;;;;;19.63;12.97;;;;;;;;;;4433647;32;20284;-54
2021/10/18 00:40:45;;;;;;;24.03;13.73;;;;;;;;;;4432801;32;20410;-54
2021/10/18 00:43:11;;;;;;;24.27;14.87;;;;;;;;;;4432733;32;20376;-55
2021/10/18 00:45:37;;;;;;;17.53;11.23;;;;;;;;;;4433077;32;20422;-55
2021/10/18 00:48:03;;;;;;;17.53;12.17;;;;;;;;;;4431426;32;20252;-54
2021/10/18 00:50:29;;;;;;;19.60;12.13;;;;;;;;;;4432298;32;20334;-55
2021/10/18 00:52:55;;;;;;;19.50;13.00;;;;;;;;;;4432393;32;20304;-54
2021/10/18 00:55:20;;;;;;;23.27;14.80;;;;;;;;;;4432854;32;20276;-54
2021/10/18 00:57:48;;;;;;;23.37;13.60;;;;;;;;;;4432453;32;20225;-54
2021/10/18 01:00:14;;;;;;;24.50;14.90;;;;;;;;;;4431097;32;20237;-53
2021/10/18 01:02:40;;;;;;;28.03;14.73;;;;;;;;;;4430566;32;20283;-54
2021/10/18 01:05:07;;;;;;;25.90;15.83;;;;;;;;;;4432297;32;20311;-55
2021/10/18 01:07:34;;;;;;;19.03;14.33;;;;;;;;;;4432477;32;20208;-53
2021/10/18 01:10:00;;;;;;;24.60;14.60;;;;;;;;;;4432292;32;20221;-53
2021/10/18 01:12:27;;;;;;;26.43;14.97;;;;;;;;;;4430801;32;20231;-54
2021/10/18 01:14:52;;;;;;;26.63;16.17;;;;;;;;;;4432438;32;20307;-55
2021/10/18 01:17:18;;;;;;;26.77;14.83;;;;;;;;;;4432595;32;20376;-54
2021/10/18 01:19:43;;;;;;;25.63;16.17;;;;;;;;;;4432810;32;20283;-55
2021/10/18 01:22:09;;;;;;;24.40;14.73;;;;;;;;;;4431895;32;20302;-56
2021/10/18 01:24:35;;;;;;;19.67;13.40;;;;;;;;;;4432193;32;20418;-55
2021/10/18 01:27:02;;;;;;;17.60;11.53;;;;;;;;;;4431871;32;20229;-55
2021/10/18 01:29:32;;;;;;;20.60;13.53;;;;;;;;;;4432454;32;20221;-56
2021/10/18 01:31:58;;;;;;;29.87;14.93;;;;;;;;;;4431556;32;20740;-54
2021/10/18 01:34:23;;;;;;;24.13;15.63;;;;;;;;;;4432789;32;20288;-54
2021/10/18 01:36:49;;;;;;;26.17;15.13;;;;;;;;;;4432119;32;20316;-55
2021/10/18 01:39:15;;;;;;;24.40;15.67;;;;;;;;;;4432359;32;20315;-55
2021/10/18 01:41:40;;;;;;;26.57;15.03;;;;;;;;;;4432273;32;20239;-54
2021/10/18 01:44:05;;;;;;;29.23;15.57;;;;;;;;;;4431655;32;20680;-55
2021/10/18 01:46:31;;;;;;;30.27;17.93;;;;;;;;;;4432204;32;20241;-56
2021/10/18 01:48:56;;;;;;;26.67;15.23;;;;;;;;;;4432400;32;20301;-54
2021/10/18 01:51:22;;;;;;;26.83;15.23;;;;;;;;;;4430885;32;20286;-55
2021/10/18 01:53:48;;;;;;;26.23;16.30;;;;;;;;;;4430646;32;20315;-55
2021/10/18 01:56:13;;;;;;;35.60;16.37;;;;;;;;;;4432323;32;20317;-54
2021/10/18 01:58:38;;;;;;;24.07;13.70;;;;;;;;;;4432497;32;20300;-54
2021/10/18 02:01:04;;;;;;;19.10;13.17;;;;;;;;;;4429749;32;20465;-54
2021/10/18 02:03:30;;;;;;;14.70;10.07;;;;;;;;;;4432478;32;20232;-53
2021/10/18 02:05:56;;;;;;;12.90;8.50;;;;;;;;;;4432179;32;20320;-54
2021/10/18 02:08:21;;;;;;;13.90;9.23;;;;;;;;;;4432258;32;20745;-55
2021/10/18 02:10:47;;;;;;;13.27;8.60;;;;;;;;;;4431900;32;20283;-56
2021/10/18 02:13:13;;;;;;;21.97;10.57;;;;;;;;;;4431312;32;20287;-54
2021/10/18 02:15:39;;;;;;;17.97;12.50;;;;;;;;;;4432105;32;20718;-54
2021/10/18 02:18:04;;;;;;;24.83;14.13;;;;;;;;;;4431879;32;20221;-54
2021/10/18 02:20:30;;;;;;;20.17;12.17;;;;;;;;;;4431771;32;20303;-54
2021/10/18 02:22:56;;;;;;;17.80;11.40;;;;;;;;;;4431501;32;20313;-53
2021/10/18 02:25:21;;;;;;;21.97;13.17;;;;;;;;;;4431427;32;20280;-53
2021/10/18 02:27:47;;;;;;;15.53;11.33;;;;;;;;;;4432220;32;20724;-55
2021/10/18 02:30:13;;;;;;;19.47;11.60;;;;;;;;;;4431853;32;20676;-56
2021/10/18 02:32:40;;;;;;;15.93;9.97;;;;;;;;;;4431946;32;20301;-52
2021/10/18 02:35:07;;;;;;;19.17;11.17;;;;;;;;;;4432743;32;20341;-54
2021/10/18 02:37:32;;;;;;;17.20;11.23;;;;;;;;;;4435105;32;20285;-54
2021/10/18 02:39:58;;;;;;;15.30;10.27;;;;;;;;;;4434738;32;20716;-54
2021/10/18 02:42:23;;;;;;;15.87;11.23;;;;;;;;;;4434870;32;20213;-54
2021/10/18 02:44:49;;;;;;;15.87;11.13;;;;;;;;;;4434235;32;20291;-54
2021/10/18 02:47:14;;;;;;;18.53;10.97;;;;;;;;;;4434504;32;20814;-54
2021/10/18 02:49:40;;;;;;;25.53;12.17;;;;;;;;;;4435203;32;20275;-54
2021/10/18 02:52:05;;;;;;;17.60;10.77;;;;;;;;;;4433018;32;20245;-54
2021/10/18 02:54:31;;;;;;;20.03;11.07;;;;;;;;;;4434676;32;20753;-55
2021/10/18 02:56:56;;;;;;;17.57;10.73;;;;;;;;;;4433979;32;20624;-55
2021/10/18 02:59:22;;;;;;;26.33;13.30;;;;;;;;;;4434206;32;20283;-54
2021/10/18 03:01:48;;;;;;;18.93;12.67;;;;;;;;;;4433731;32;20229;-54
2021/10/18 03:04:13;;;;;;;19.20;13.07;;;;;;;;;;4433222;32;20390;-55
2021/10/18 03:06:39;;;;;;;23.17;14.17;;;;;;;;;;4433874;32;20538;-54
2021/10/18 03:09:04;;;;;;;23.20;17.43;;;;;;;;;;4438029;32;20412;-54
2021/10/18 03:11:30;;;;;;;21.93;14.30;;;;;;;;;;4432932;32;20241;-54
2021/10/18 03:13:56;;;;;;;19.33;11.90;;;;;;;;;;4434450;32;20296;-56
2021/10/18 03:16:21;;;;;;;19.40;11.30;;;;;;;;;;4433659;32;20247;-55
2021/10/18 03:18:47;;;;;;;13.93;10.93;;;;;;;;;;4434647;32;20318;-53
2021/10/18 03:21:12;;;;;;;21.93;10.00;;;;;;;;;;4434027;32;20240;-54
2021/10/18 03:23:38;;;;;;;13.43;8.70;;;;;;;;;;4433024;32;20315;-54
2021/10/18 03:26:03;;;;;;;17.40;8.53;;;;;;;;;;4433469;32;20295;-54
2021/10/18 03:28:29;;;;;;;15.50;8.93;;;;;;;;;;4433072;32;20324;-54
2021/10/18 03:30:54;;;;;;;16.90;8.50;;;;;;;;;;4433995;32;20720;-55
2021/10/18 03:33:20;;;;;;;16.00;10.17;;;;;;;;;;4434465;32;20289;-54
2021/10/18 03:35:45;;;;;;;22.73;11.13;;;;;;;;;;4433903;32;20391;-55
2021/10/18 03:38:11;;;;;;;21.33;13.03;;;;;;;;;;4433742;32;20318;-55
2021/10/18 03:40:37;;;;;;;21.83;12.90;;;;;;;;;;4433464;32;20217;-54
2021/10/18 03:43:02;;;;;;;24.60;11.53;;;;;;;;;;4434011;32;20617;-54
2021/10/18 03:45:28;;;;;;;25.63;13.33;;;;;;;;;;4433584;32;20738;-56
2021/10/18 03:47:53;;;;;;;17.17;11.57;;;;;;;;;;4433027;32;20358;-54
2021/10/18 03:50:19;;;;;;;20.27;13.10;;;;;;;;;;4434094;32;20334;-55
2021/10/18 03:52:44;;;;;;;24.23;13.17;;;;;;;;;;4433780;32;20426;-55
2021/10/18 03:55:10;;;;;;;17.53;10.23;;;;;;;;;;4433273;32;20315;-57
2021/10/18 03:57:36;;;;;;;11.03;8.20;;;;;;;;;;4432534;32;20309;-55
2021/10/18 04:00:03;;;;;;;12.80;9.07;;;;;;;;;;4432980;32;20410;-54
2021/10/18 04:02:28;;;;;;;19.57;12.13;;;;;;;;;;4431749;32;20244;-54
2021/10/18 04:04:53;;;;;;;18.50;11.50;;;;;;;;;;4433413;32;20770;-54
2021/10/18 04:07:19;;;;;;;15.30;10.40;;;;;;;;;;4434241;32;20242;-54
2021/10/18 04:09:46;;;;;;;16.17;11.20;;;;;;;;;;4436424;32;20314;-53
2021/10/18 04:12:12;;;;;;;20.87;11.27;;;;;;;;;;4430032;32;20665;-54
2021/10/18 04:14:37;;;;;;;18.47;11.83;;;;;;;;;;4433649;32;20303;-56
2021/10/18 04:17:03;;;;;;;18.87;12.17;;;;;;;;;;4432766;32;20307;-54
2021/10/18 04:19:28;;;;;;;16.10;11.50;;;;;;;;;;4433513;32;20294;-54
2021/10/18 04:21:54;;;;;;;17.73;11.90;;;;;;;;;;4432997;32;20268;-55
2021/10/18 04:24:19;;;;;;;16.47;11.40;;;;;;;;;;4433273;32;20334;-55
2021/10/18 04:26:45;;;;;;;24.70;11.73;;;;;;;;;;4432937;32;20589;-54
2021/10/18 04:29:10;;;;;;;19.73;12.33;;;;;;;;;;4431641;32;20328;-54
2021/10/18 04:31:36;;;;;;;18.97;12.33;;;;;;;;;;4419908;32;20316;-54
2021/10/18 04:34:01;;;;;;;16.77;12.80;;;;;;;;;;4417942;32;20284;-54
2021/10/18 04:36:28;;;;;;;24.10;13.17;;;;;;;;;;4427441;32;20251;-54
2021/10/18 04:38:53;;;;;;;19.37;12.77;;;;;;;;;;4431584;32;20274;-55
2021/10/18 04:41:19;;;;;;;16.93;12.53;;;;;;;;;;4432818;32;20229;-55
2021/10/18 04:43:45;;;;;;;24.33;13.73;;;;;;;;;;4433322;32;20295;-54
2021/10/18 04:46:10;;;;;;;25.27;15.03;;;;;;;;;;4431411;32;20724;-54
2021/10/18 04:48:36;;;;;;;22.77;14.53;;;;;;;;;;4432862;32;20566;-55
2021/10/18 04:51:01;;;;;;;35.40;17.50;;;;;;;;;;4431313;32;20362;-54
2021/10/18 04:53:27;;;;;;;28.37;15.73;;;;;;;;;;4433075;32;20399;-54
2021/10/18 04:55:53;;;;;;;45.83;22.77;;;;;;;;;;4432587;32;20753;-53
2021/10/18 04:58:18;;;;;;;53.53;24.57;;;;;;;;;;4431698;32;20288;-55
2021/10/18 05:00:46;;;;;;;78.43;37.20;;;;;;;;;;4432668;32;20280;-53
2021/10/18 05:03:11;;;;;;;71.80;33.60;;;;;;;;;;4432261;32;20233;-53
2021/10/18 05:05:39;;;;;;;33.07;21.23;;;;;;;;;;4432509;32;20354;-54
2021/10/18 05:08:07;;;;;;;36.97;22.90;;;;;;;;;;4434863;32;20605;-55
2021/10/18 05:10:34;;;;;;;41.70;24.73;;;;;;;;;;4432379;32;20268;-54
2021/10/18 05:13:00;;;;;;;44.77;25.57;;;;;;;;;;4432246;32;20656;-54
2021/10/18 05:15:25;;;;;;;43.97;22.00;;;;;;;;;;4428276;32;20272;-54
2021/10/18 05:17:51;;;;;;;40.30;20.13;;;;;;;;;;4417038;32;20249;-55
2021/10/18 05:20:16;;;;;;;45.20;24.23;;;;;;;;;;4420282;32;20300;-55
2021/10/18 05:22:42;;;;;;;48.40;22.90;;;;;;;;;;4431500;32;20256;-55
2021/10/18 05:25:08;;;;;;;33.63;22.73;;;;;;;;;;4431859;32;20759;-54
2021/10/18 05:27:35;;;;;;;41.83;22.70;;;;;;;;;;4431842;32;20217;-55
2021/10/18 05:30:00;;;;;;;37.43;20.57;;;;;;;;;;4431343;32;20685;-56
2021/10/18 05:32:26;;;;;;;36.77;22.10;;;;;;;;;;4429565;32;20286;-56
2021/10/18 05:34:51;;;;;;;31.83;20.43;;;;;;;;;;4431563;32;20330;-55
2021/10/18 05:37:17;;;;;;;40.00;20.47;;;;;;;;;;4431197;32;20588;-56
2021/10/18 05:39:42;;;;;;;32.23;17.83;;;;;;;;;;4430973;32;20291;-55
2021/10/18 05:42:07;;;;;;;32.93;19.13;;;;;;;;;;4429874;32;20342;-55
2021/10/18 05:44:33;;;;;;;34.93;19.37;;;;;;;;;;4431461;32;20270;-57
2021/10/18 05:46:58;;;;;;;35.80;19.23;;;;;;;;;;4430995;32;20254;-55
2021/10/18 05:49:25;;;;;;;38.63;21.33;;;;;;;;;;4430820;32;20325;-55
2021/10/18 05:51:51;;;;;;;35.47;20.10;;;;;;;;;;4429211;32;20248;-56
2021/10/18 05:54:16;;;;;;;40.03;21.47;;;;;;;;;;4429210;32;20556;-56
2021/10/18 05:56:41;;;;;;;35.50;20.83;;;;;;;;;;4430895;32;20582;-55
2021/10/18 05:59:07;;;;;;;36.97;19.33;;;;;;;;;;4430409;32;20304;-56
2021/10/18 06:01:32;;;;;;;38.30;20.00;;;;;;;;;;4429123;32;20752;-55
2021/10/18 06:03:59;;;;;;;36.40;19.57;;;;;;;;;;4430949;32;20256;-55
2021/10/18 06:06:25;;;;;;;33.47;20.27;;;;;;;;;;4431803;32;20327;-55
2021/10/18 06:08:50;;;;;;;33.93;20.17;;;;;;;;;;4433078;32;20359;-54
2021/10/18 06:11:16;;;;;;;38.63;21.00;;;;;;;;;;4432308;32;20248;-54
2021/10/18 06:13:43;;;;;;;33.53;21.37;;;;;;;;;;4434081;32;20284;-54
2021/10/18 06:16:09;;;;;;;39.23;25.60;;;;;;;;;;4434265;32;20359;-55
2021/10/18 06:18:34;;;;;;;50.33;30.07;;;;;;;;;;4434718;32;20719;-57
2021/10/18 06:21:00;;;;;;;38.80;24.63;;;;;;;;;;4433894;32;20322;-56
2021/10/18 06:23:25;;;;;;;29.90;20.47;;;;;;;;;;4433349;32;20264;-55
2021/10/18 06:25:52;;;;;;;32.47;19.93;;;;;;;;;;4434636;32;20358;-57
2021/10/18 06:28:18;;;;;;;31.53;20.13;;;;;;;;;;4435302;32;20642;-56
2021/10/18 06:30:43;;;;;;;41.60;22.80;;;;;;;;;;4434650;32;20368;-58
2021/10/18 06:33:09;;;;;;;45.83;26.97;;;;;;;;;;4434297;32;20377;-56
2021/10/18 06:35:37;;;;;;;47.13;28.07;;;;;;;;;;4435026;32;20304;-55
2021/10/18 06:38:09;;;;;;;40.83;26.63;;;;;;;;;;4433562;32;20738;-56
2021/10/18 06:40:35;;;;;;;49.17;26.83;;;;;;;;;;4434207;32;20326;-57
2021/10/18 06:43:00;;;;;;;38.70;24.90;;;;;;;;;;4434238;32;20395;-58
2021/10/18 06:45:26;;;;;;;40.10;24.23;;;;;;;;;;4435285;32;20291;-56
2021/10/18 06:47:51;;;;;;;46.07;28.33;;;;;;;;;;4429291;32;20319;-56
2021/10/18 06:50:17;;;;;;;39.73;25.37;;;;;;;;;;4433280;32;20759;-56
2021/10/18 06:52:43;;;;;;;41.30;24.23;;;;;;;;;;4424625;32;20341;-56
2021/10/18 06:55:11;;;;;;;48.57;23.87;;;;;;;;;;4434097;32;20832;-56
2021/10/18 06:57:37;;;;;;;64.10;27.20;;;;;;;;;;4426398;32;20616;-56
2021/10/18 07:00:05;;;;;;;52.97;26.20;;;;;;;;;;4433932;32;20338;-57
2021/10/18 07:02:30;;;;;;;49.73;25.30;;;;;;;;;;4429603;32;20243;-55
2021/10/18 07:04:55;;;;;;;52.00;29.23;;;;;;;;;;4433686;32;20367;-56
2021/10/18 07:07:21;;;;;;;41.73;26.50;;;;;;;;;;4427363;32;20251;-56
2021/10/18 07:09:47;;;;;;;36.87;24.97;;;;;;;;;;4448101;32;20317;-56
2021/10/18 07:12:12;;;;;;;31.23;20.10;;;;;;;;;;4438191;32;20991;-56
2021/10/18 07:14:38;;;;;;;35.30;20.37;;;;;;;;;;4433815;32;20327;-56
2021/10/18 07:17:03;;;;;;;36.73;21.97;;;;;;;;;;4432236;32;20290;-56
2021/10/18 07:19:29;;;;;;;34.83;24.00;;;;;;;;;;4434296;32;20668;-56
2021/10/18 07:21:55;;;;;;;48.70;26.10;;;;;;;;;;4429608;32;20311;-56
2021/10/18 07:24:21;;;;;;;45.83;26.00;;;;;;;;;;4430636;32;20374;-56
2021/10/18 07:26:49;;;;;;;58.73;28.13;;;;;;;;;;4434353;32;20623;-56
2021/10/18 07:29:17;;;;;;;38.17;24.20;;;;;;;;;;4432627;32;20331;-56
2021/10/18 07:31:43;;;;;;;32.30;18.30;;;;;;;;;;4434097;32;20282;-56
2021/10/18 07:34:14;;;;;;;27.67;18.67;;;;;;;;;;4433429;32;20356;-57
2021/10/18 07:36:49;;;;;;;28.53;19.33;;;;;;;;;;4432261;32;20209;-56
2021/10/18 07:39:25;;;;;;;27.63;18.53;;;;;;;;;;4429630;32;20283;-56
2021/10/18 07:41:53;;;;;;;32.20;20.03;;;;;;;;;;4431363;32;20303;-56
2021/10/18 07:44:19;;;;;;;28.47;19.93;;;;;;;;;;4433399;32;20212;-56
2021/10/18 07:46:45;;;;;;;28.37;19.87;;;;;;;;;;4431125;32;20358;-56
2021/10/18 07:49:11;;;;;;;38.63;23.77;;;;;;;;;;4428200;32;20582;-56
2021/10/18 07:51:38;;;;;;;30.33;21.53;;;;;;;;;;4431827;32;20241;-56
2021/10/18 07:54:04;;;;;;;37.80;24.60;;;;;;;;;;4426313;32;20229;-55
2021/10/18 07:56:31;;;;;;;33.10;22.40;;;;;;;;;;4432648;32;20228;-56
2021/10/18 07:58:57;;;;;;;34.03;22.60;;;;;;;;;;4430212;32;20213;-56
2021/10/18 08:01:22;;;;;;;33.27;22.40;;;;;;;;;;4431900;32;20424;-56
2021/10/18 08:03:48;;;;;;;40.60;24.77;;;;;;;;;;4430867;32;22131;-56
2021/10/18 08:06:13;;;;;;;37.47;23.70;;;;;;;;;;4430552;32;20296;-57
2021/10/18 08:08:48;;;;;;;40.70;22.87;;;;;;;;;;4430473;32;20336;-55
2021/10/18 08:11:14;;;;;;;36.67;20.70;;;;;;;;;;4431328;32;20598;-56
2021/10/18 08:13:39;;;;;;;33.00;22.07;;;;;;;;;;4425224;32;20338;-57
2021/10/18 08:16:05;;;;;;;33.33;21.93;;;;;;;;;;4430817;32;20368;-55
2021/10/18 08:18:31;;;;;;;44.77;24.60;;;;;;;;;;4432626;32;20320;-56
2021/10/18 08:20:57;;;;;;;27.67;20.83;;;;;;;;;;4432923;32;20272;-56
2021/10/18 08:23:22;;;;;;;38.40;22.33;;;;;;;;;;4431181;32;20350;-56
2021/10/18 08:25:48;;;;;;;35.87;22.80;;;;;;;;;;4430705;32;20240;-56
2021/10/18 08:28:13;;;;;;;35.23;21.03;;;;;;;;;;4432634;32;20367;-57
2021/10/18 08:30:39;;;;;;;30.83;19.40;;;;;;;;;;4432003;32;20735;-56
2021/10/18 08:33:05;;;;;;;24.57;16.63;;;;;;;;;;4432735;32;20326;-57
2021/10/18 08:35:32;;;;;;;32.77;17.40;;;;;;;;;;4433269;32;20342;-57
2021/10/18 08:46:01;;;;;;;24.37;15.47;;;;;;;;;;4430677;32;20599;-57
2021/10/18 08:48:28;;;;;;;23.90;15.20;;;;;;;;;;4432323;32;20284;-57
2021/10/18 08:50:53;;;;;;;27.43;14.13;;;;;;;;;;4433381;32;20217;-57
2021/10/18 08:53:19;;;;;;;18.77;13.17;;;;;;;;;;4432421;32;20396;-56
2021/10/18 08:55:44;;;;;;;22.30;13.30;;;;;;;;;;4433195;32;20675;-56
2021/10/18 08:58:09;;;;;;;19.03;13.10;;;;;;;;;;4431677;32;20751;-55
2021/10/18 09:00:46;;;;;;;16.50;11.40;;;;;;;;;;4430293;32;20338;-56
2021/10/18 09:03:16;;;;;;;17.13;12.63;;;;;;;;;;4429924;32;21097;-55
2021/10/18 09:05:43;;;;;;;19.27;10.53;;;;;;;;;;4430907;32;20209;-55
2021/10/18 09:08:08;;;;;;;14.83;11.20;;;;;;;;;;4429714;32;20279;-55
2021/10/18 09:10:34;;;;;;;16.20;11.47;;;;;;;;;;4432141;32;20287;-56
2021/10/18 09:13:10;;;;;;;19.70;13.40;;;;;;;;;;4431208;32;20347;-55
2021/10/18 09:15:35;;;;;;;13.93;9.80;;;;;;;;;;4432051;32;20283;-55
2021/10/18 09:18:01;;;;;;;15.13;9.20;;;;;;;;;;4432452;32;20307;-55
2021/10/18 09:20:29;;;;;;;15.90;11.23;;;;;;;;;;4431686;32;20372;-55
2021/10/18 09:23:15;;;;;;;18.23;10.03;;;;;;;;;;4433440;32;20299;-54
2021/10/18 09:25:40;;;;;;;20.43;11.33;;;;;;;;;;4433432;32;20305;-54
2021/10/18 09:28:22;;;;;;;12.60;9.50;;;;;;;;;;4431393;32;20318;-54
2021/10/18 09:30:48;;;;;;;14.10;7.33;;;;;;;;;;4433392;32;20506;-55
2021/10/18 09:33:34;;;;;;;10.37;7.30;;;;;;;;;;4432816;32;20307;-55
2021/10/18 09:36:02;;;;;;;13.00;9.13;;;;;;;;;;4433162;32;20200;-56
2021/10/18 09:38:28;;;;;;;12.27;8.80;;;;;;;;;;4432940;32;20223;-54
2021/10/18 09:40:56;;;;;;;13.00;8.37;;;;;;;;;;4432991;32;20272;-54
2021/10/18 09:43:44;;;;;;;13.27;9.13;;;;;;;;;;4433072;32;20267;-54
2021/10/18 09:46:17;;;;;;;17.40;8.73;;;;;;;;;;4435618;32;20606;-55
2021/10/18 10:53:23;;;;;;;8.37;7.00;;;;;;;;;;4419107;32;20327;-54
2021/10/18 10:55:50;;;;;;;8.77;6.07;;;;;;;;;;4418767;32;20255;-55
2021/10/18 10:58:35;;;;;;;7.93;6.63;;;;;;;;;;4417786;32;20286;-55
2021/10/18 11:01:03;;;;;;;9.80;7.63;;;;;;;;;;4427459;32;20208;-55
2021/10/18 11:03:39;;;;;;;9.70;7.60;;;;;;;;;;4435022;32;20605;-56
2021/10/18 11:06:10;;;;;;;12.03;7.83;;;;;;;;;;4434204;32;20284;-56
2021/10/18 11:08:40;;;;;;;13.90;6.20;;;;;;;;;;4441236;32;20294;-56
2021/10/18 11:11:13;;;;;;;9.97;8.00;;;;;;;;;;4449480;32;20276;-56
2021/10/18 11:13:55;;;;;;;6.90;4.73;;;;;;;;;;4450399;32;20562;-56
2021/10/18 11:16:26;;;;;;;7.40;5.57;;;;;;;;;;4448974;32;20236;-54
2021/10/18 11:18:54;;;;;;;7.60;4.73;;;;;;;;;;4450342;32;20521;-54
2021/10/18 11:21:35;;;;;;;6.30;5.03;;;;;;;;;;4448650;32;20259;-55
2021/10/18 11:24:09;;;;;;;6.00;4.90;;;;;;;;;;4445113;32;20261;-54
2021/10/18 11:26:37;;;;;;;6.53;4.87;;;;;;;;;;4432786;32;20719;-54
2021/10/18 11:29:09;;;;;;;6.57;4.73;;;;;;;;;;4434178;32;20615;-56
2021/10/18 11:31:38;;;;;;;6.80;5.47;;;;;;;;;;4434343;32;20577;-55
2021/10/18 11:34:16;;;;;;;7.17;5.50;;;;;;;;;;4434237;32;20252;-55
2021/10/18 11:36:47;;;;;;;9.27;5.83;;;;;;;;;;4433134;32;20221;-54
2021/10/18 11:39:22;;;;;;;4.50;4.07;;;;;;;;;;4432517;32;20363;-55
2021/10/18 11:42:11;;;;;;;6.35;5.12;;;;;;;;;;4434079;32;20235;-54
2021/10/18 11:44:38;;;;;;;7.63;4.83;;;;;;;;;;4434164;32;20611;-55
2021/10/18 11:47:05;;;;;;;6.23;4.37;;;;;;;;;;4433828;32;20216;-54
2021/10/18 11:49:30;;;;;;;7.30;4.83;;;;;;;;;;4432932;32;20299;-56
2021/10/18 11:51:56;;;;;;;5.97;4.00;;;;;;;;;;4433999;32;20718;-56
2021/10/18 11:54:21;;;;;;;11.00;6.00;;;;;;;;;;4434320;32;20284;-58
2021/10/18 11:56:47;;;;;;;4.07;3.67;;;;;;;;;;4433107;32;20441;-54
2021/10/18 11:59:12;;;;;;;6.72;3.78;;;;;;;;;;4434075;32;20396;-56
2021/10/18 12:01:38;;;;;;;6.12;4.72;;;;;;;;;;4433406;32;20276;-56
2021/10/18 12:04:06;;;;;;;7.97;5.07;;;;;;;;;;4432729;32;20308;-55
2021/10/18 12:06:46;;;;;;;6.80;4.20;;;;;;;;;;4432019;32;20736;-55
2021/10/18 12:09:11;;;;;;;5.28;4.53;;;;;;;;;;4443981;32;20280;-57
2021/10/18 12:11:37;;;;;;;7.05;4.85;;;;;;;;;;4444578;32;20256;-55
2021/10/18 12:14:03;;;;;;;5.60;4.35;;;;;;;;;;4434012;32;20751;-55
2021/10/18 12:16:28;;;;;;;4.97;3.97;;;;;;;;;;4433695;32;20322;-57
2021/10/18 12:18:58;;;;;;;6.50;4.53;;;;;;;;;;4432187;32;20299;-55
2021/10/18 12:21:27;;;;;;;6.68;4.35;;;;;;;;;;4432248;32;20676;-56
2021/10/18 12:23:57;;;;;;;5.13;3.77;;;;;;;;;;4433609;32;20815;-55
2021/10/18 12:26:26;;;;;;;4.85;3.67;;;;;;;;;;4433527;32;20267;-54
2021/10/18 12:29:11;;;;;;;9.80;4.45;;;;;;;;;;4433737;32;20205;-55
2021/10/18 12:31:44;;;;;;;8.20;4.57;;;;;;;;;;4433406;32;20351;-54
2021/10/18 12:34:23;;;;;;;6.60;4.50;;;;;;;;;;4431941;32;20300;-55
2021/10/18 12:37:00;;;;;;;6.33;3.87;;;;;;;;;;4431588;32;20408;-56
2021/10/18 12:39:49;;;;;;;6.13;4.23;;;;;;;;;;4432223;32;20227;-55
2021/10/18 12:42:24;;;;;;;4.45;3.62;;;;;;;;;;4433160;32;20247;-55
2021/10/18 12:45:00;;;;;;;5.00;3.37;;;;;;;;;;4433336;32;20568;-56
2021/10/18 12:47:26;;;;;;;6.85;4.28;;;;;;;;;;4433340;32;20232;-56
2021/10/18 12:50:03;;;;;;;11.43;6.60;;;;;;;;;;4433478;32;20378;-55
2021/10/18 12:52:34;;;;;;;11.48;5.60;;;;;;;;;;4433207;32;20299;-55
2021/10/18 12:55:17;;;;;;;24.57;11.53;;;;;;;;;;4432999;32;20384;-56
2021/10/18 12:58:20;;;;;;;13.10;6.93;;;;;;;;;;4433110;32;20280;-55
2021/10/18 13:00:46;;;;;;;14.90;5.67;;;;;;;;;;4433158;32;20220;-55
2021/10/18 13:03:11;;;;;;;10.80;5.03;;;;;;;;;;4432270;32;20637;-54
2021/10/18 13:05:38;;;;;;;26.60;7.90;;;;;;;;;;4433391;32;20272;-55
2021/10/18 13:08:04;;;;;;;6.00;4.33;;;;;;;;;;4436443;32;20247;-54
2021/10/18 13:10:35;;;;;;;4.47;3.37;;;;;;;;;;4448490;32;20287;-54
2021/10/18 13:13:06;;;;;;;7.70;3.60;;;;;;;;;;4434937;32;20297;-55
2021/10/18 13:15:33;;;;;;;4.23;3.10;;;;;;;;;;4432548;32;20219;-54
2021/10/18 13:17:59;;;;;;;5.00;3.30;;;;;;;;;;4431325;32;20375;-56
2021/10/18 13:20:25;;;;;;;4.10;2.80;;;;;;;;;;4432045;32;20301;-57
2021/10/18 13:22:53;;;;;;;6.47;2.70;;;;;;;;;;4432395;32;20655;-54
2021/10/18 13:25:20;;;;;;;4.90;3.23;;;;;;;;;;4418149;32;20228;-55
2021/10/18 13:27:46;;;;;;;4.33;3.80;;;;;;;;;;4432158;32;20315;-55
2021/10/18 13:30:12;;;;;;;9.67;5.73;;;;;;;;;;4432573;32;20311;-57
2021/10/18 13:32:39;;;;;;;12.00;5.27;;;;;;;;;;4432552;32;20229;-55
2021/10/18 13:35:06;;;;;;;7.23;4.73;;;;;;;;;;4432256;32;20205;-57
2021/10/18 13:37:32;;;;;;;8.20;5.53;;;;;;;;;;4432619;32;20630;-56
2021/10/18 13:39:57;;;;;;;10.07;6.53;;;;;;;;;;4432006;32;20339;-56
2021/10/18 13:42:24;;;;;;;10.10;6.23;;;;;;;;;;4432264;32;20263;-57
2021/10/18 13:44:50;;;;;;;10.63;6.10;;;;;;;;;;4432507;32;20314;-57
2021/10/18 13:47:15;;;;;;;10.97;7.33;;;;;;;;;;4431894;32;20307;-58
2021/10/18 13:49:41;;;;;;;9.53;6.63;;;;;;;;;;4432506;32;20436;-58
2021/10/18 13:52:06;;;;;;;12.63;8.07;;;;;;;;;;4432368;32;20351;-58
2021/10/18 13:54:33;;;;;;;11.30;6.73;;;;;;;;;;4432004;32;20264;-57
2021/10/18 13:57:00;;;;;;;12.73;6.97;;;;;;;;;;4431922;32;20217;-57
2021/10/18 13:59:25;;;;;;;12.03;5.23;;;;;;;;;;4432253;32;20295;-58
2021/10/18 14:01:51;;;;;;;12.00;6.67;;;;;;;;;;4431419;32;20332;-56
2021/10/18 14:04:17;;;;;;;15.33;10.03;;;;;;;;;;4432231;32;20294;-57
2021/10/18 14:06:45;;;;;;;36.30;16.87;;;;;;;;;;4432134;32;20225;-57
2021/10/18 14:09:12;;;;;;;12.80;10.27;;;;;;;;;;4442799;32;20236;-56
2021/10/18 14:11:38;;;;;;;21.80;11.83;;;;;;;;;;4444037;32;20284;-56
2021/10/18 14:14:05;;;;;;;18.70;14.37;;;;;;;;;;4431751;32;20279;-56
2021/10/18 14:16:32;;;;;;;28.77;17.73;;;;;;;;;;4432101;32;20346;-55
2021/10/18 14:18:57;;;;;;;27.93;17.07;;;;;;;;;;4432010;32;20274;-56
2021/10/18 14:21:23;;;;;;;27.77;16.13;;;;;;;;;;4432161;32;20225;-54
2021/10/18 14:23:49;;;;;;;15.57;12.40;;;;;;;;;;4432144;32;20276;-56
2021/10/18 14:26:15;;;;;;;14.80;10.80;;;;;;;;;;4430393;32;20371;-55
2021/10/18 14:28:41;;;;;;;14.40;10.87;;;;;;;;;;4432212;32;20204;-56
2021/10/18 14:31:07;;;;;;;27.97;16.00;;;;;;;;;;4433273;32;20691;-55
2021/10/18 14:33:33;;;;;;;19.63;10.50;;;;;;;;;;4434967;32;20298;-57
2021/10/18 14:35:58;;;;;;;16.27;10.20;;;;;;;;;;4434906;32;20292;-56
2021/10/18 14:38:24;;;;;;;17.03;10.03;;;;;;;;;;4433446;32;20280;-55
2021/10/18 14:40:50;;;;;;;12.93;9.37;;;;;;;;;;4434792;32;20299;-55
2021/10/18 14:43:15;;;;;;;16.17;9.67;;;;;;;;;;4434390;32;20333;-55
2021/10/18 14:45:41;;;;;;;17.97;10.67;;;;;;;;;;4433391;32;20344;-56
2021/10/18 14:48:07;;;;;;;22.20;16.43;;;;;;;;;;4433980;32;20228;-56
2021/10/18 14:50:32;;;;;;;24.83;14.73;;;;;;;;;;4434070;32;20292;-56
2021/10/18 14:52:58;;;;;;;26.57;15.10;;;;;;;;;;4433603;32;20260;-56
2021/10/18 14:55:24;;;;;;;23.17;13.40;;;;;;;;;;4433447;32;20221;-56
2021/10/18 14:57:50;;;;;;;34.03;18.73;;;;;;;;;;4434481;32;20284;-56
2021/10/18 15:00:16;;;;;;;42.73;17.40;;;;;;;;;;4433047;32;20299;-56
2021/10/18 15:02:44;;;;;;;34.73;20.63;;;;;;;;;;4433643;32;20612;-56
2021/10/18 15:05:10;;;;;;;53.60;29.67;;;;;;;;;;4434118;32;20266;-54
2021/10/18 15:07:37;;;;;;;57.17;32.47;;;;;;;;;;4434843;32;20251;-56
2021/10/18 15:10:03;;;;;;;41.30;25.27;;;;;;;;;;4437986;32;20304;-55
2021/10/18 15:12:29;;;;;;;34.70;23.90;;;;;;;;;;4434016;32;20761;-56
2021/10/18 15:14:55;;;;;;;45.43;31.53;;;;;;;;;;4434026;32;20287;-56
2021/10/18 15:17:21;;;;;;;40.73;28.70;;;;;;;;;;4434042;32;20251;-56
2021/10/18 15:19:47;;;;;;;33.00;21.17;;;;;;;;;;4432928;32;20288;-55
2021/10/18 15:22:17;;;;;;;27.10;18.33;;;;;;;;;;4432145;32;20970;-55
2021/10/18 15:24:44;;;;;;;24.33;16.43;;;;;;;;;;4432746;32;20276;-56
2021/10/18 15:27:10;;;;;;;24.73;17.43;;;;;;;;;;4433356;32;20710;-56
2021/10/18 15:29:35;;;;;;;32.17;21.77;;;;;;;;;;4433708;32;20292;-55
2021/10/18 15:32:01;;;;;;;37.80;23.17;;;;;;;;;;4433769;32;20608;-55
2021/10/18 15:34:27;;;;;;;36.13;22.93;;;;;;;;;;4433801;32;20331;-55
2021/10/18 15:36:55;;;;;;;40.60;24.37;;;;;;;;;;4433085;32;20548;-55